Ana Sayfa
METAR-TAF:

METAR-TAF

Havaalanları :

Ballina, Avustralya

Enlem: 28-50-00S, Boylam: 153-33-42E, yükseklik: 2 m

Güncel hava durumu gözlemi

Rapor saat 22:00 UTC de 1 saat ve 3 dakika önce yapıldı.
Rüzgar kuzeydan 5 kt, kuzeybatı ve kuzeydoğu arasında değişken
Sıcaklık 23°C
Nem 94%
Basınç 1021 hPa
Görüş mesafesi: 6000 m

METAR: YBNA 082200Z AUTO 35005KT 310V040 6000 // ////// 23/22 Q1021

Saat: 10:03 (23:03 UTC)


TAF: eksik

4.000'den fazla havaalanı için hava durumu gözlemleri ve tahminleri (METAR ve TAF raporları).

Kullanılabilir istasyonlar harita üzerinde sarı ve kırmızı noktalarla gösterilir.

İstasyonun adını görmek için fareyi noktanın üzerinde gezdirin.

Sonrasında hava gözlem ve tahminlerini görmek için tıklayın.

Haritayı değiştirmek için: yaklaştırmak için siyah artı işaretli yeşil düğmeye ve uzaklaştırmak için de eksi işaretli düğmeye hızla tıklayın; bitişik haritalar için yeşil okları kullanın.


METAR-TAF: